Time;durP1;ratioP1;P1;durP2;ratioP2;P2;SDS_P1;SDS_P2;PMS_P1;PMS_P2;Temp;Humidity;BMP_temperature;BMP_pressure;BME280_temperature;BME280_humidity;BME280_pressure;Samples;Min_cycle;Max_cycle;Signal;HPM_P1;HPM_P2
2021/10/10 00:01:37;;;;;;;13.97;8.50;;;6.80;81.60;;;;;;5074001;28;20746;-87
2021/10/10 00:04:03;;;;;;;15.53;8.90;;;6.90;81.50;;;;;;5075292;28;20167;-87
2021/10/10 00:06:29;;;;;;;19.33;8.77;;;6.80;81.20;;;;;;5074061;28;20551;-87
2021/10/10 00:08:54;;;;;;;12.77;8.47;;;6.90;81.00;;;;;;5074273;28;20243;-87
2021/10/10 00:11:20;;;;;;;9.53;7.90;;;6.80;80.90;;;;;;5075306;28;20175;-86
2021/10/10 00:13:46;;;;;;;15.40;7.90;;;6.80;80.70;;;;;;5073870;28;20233;-86
2021/10/10 00:16:11;;;;;;;10.67;7.73;;;6.80;80.60;;;;;;5073919;28;20187;-87
2021/10/10 00:18:37;;;;;;;10.77;7.63;;;6.80;80.70;;;;;;5073654;28;20215;-86
2021/10/10 00:21:03;;;;;;;11.53;7.90;;;6.80;80.60;;;;;;5074741;28;20175;-86
2021/10/10 00:23:29;;;;;;;9.73;8.33;;;6.80;80.50;;;;;;5075189;28;20183;-86
2021/10/10 00:25:54;;;;;;;9.93;7.57;;;6.70;80.40;;;;;;5075176;28;20616;-86
2021/10/10 00:28:20;;;;;;;9.33;7.70;;;6.70;80.30;;;;;;5073823;28;20199;-86
2021/10/10 00:30:46;;;;;;;10.13;8.60;;;6.70;80.20;;;;;;5074455;28;20322;-87
2021/10/10 00:33:11;;;;;;;10.30;7.97;;;6.70;80.00;;;;;;5073502;28;20272;-86
2021/10/10 00:35:37;;;;;;;10.67;8.93;;;6.60;79.80;;;;;;5073117;28;20180;-86
2021/10/10 00:38:03;;;;;;;12.17;8.63;;;6.50;79.80;;;;;;5072926;28;20217;-86
2021/10/10 00:40:28;;;;;;;12.30;8.80;;;6.50;79.90;;;;;;5073040;28;20179;-86
2021/10/10 00:42:54;;;;;;;14.90;8.50;;;6.50;79.90;;;;;;5074465;28;20661;-87
2021/10/10 00:45:20;;;;;;;18.70;8.97;;;6.40;79.90;;;;;;5074586;28;20229;-86
2021/10/10 00:47:45;;;;;;;10.20;8.07;;;6.40;79.70;;;;;;5072888;28;20244;-86
2021/10/10 00:50:11;;;;;;;10.73;7.70;;;6.30;79.60;;;;;;5072900;28;20712;-86
2021/10/10 00:52:42;;;;;;;11.60;8.00;;;6.30;79.60;;;;;;5072982;28;20175;-86
2021/10/10 00:55:09;;;;;;;10.13;7.67;;;6.30;79.50;;;;;;5072919;28;20167;-86
2021/10/10 00:57:37;;;;;;;10.60;8.20;;;6.30;79.40;;;;;;5072282;28;20264;-87
2021/10/10 01:00:05;;;;;;;13.47;8.63;;;6.20;79.40;;;;;;5072563;28;20226;-87
2021/10/10 01:02:32;;;;;;;15.27;9.47;;;6.20;79.30;;;;;;5072683;28;20172;-87
2021/10/10 01:04:58;;;;;;;12.47;9.17;;;6.10;79.20;;;;;;5073948;28;20186;-87
2021/10/10 01:07:25;;;;;;;10.73;9.00;;;6.10;79.40;;;;;;5074164;28;20183;-86
2021/10/10 01:09:51;;;;;;;10.63;8.90;;;6.10;79.70;;;;;;5073815;28;20289;-86
2021/10/10 01:12:17;;;;;;;12.47;7.50;;;6.00;79.90;;;;;;5072590;28;20298;-87
2021/10/10 01:14:42;;;;;;;12.57;8.43;;;5.90;79.90;;;;;;5072421;28;20179;-86
2021/10/10 01:17:08;;;;;;;11.03;8.17;;;5.90;80.00;;;;;;5072373;28;20217;-87
2021/10/10 01:19:34;;;;;;;12.10;9.03;;;5.90;79.90;;;;;;5072443;28;20229;-87
2021/10/10 01:22:01;;;;;;;11.30;8.30;;;5.80;79.80;;;;;;5072494;28;20172;-86
2021/10/10 01:24:27;;;;;;;10.93;9.00;;;5.80;79.90;;;;;;5072358;28;20174;-86
2021/10/10 01:26:54;;;;;;;15.50;8.77;;;5.80;79.90;;;;;;5073592;28;20175;-86
2021/10/10 01:29:20;;;;;;;12.67;8.63;;;5.70;79.90;;;;;;5073411;28;20195;-87
2021/10/10 01:31:46;;;;;;;12.83;8.47;;;5.70;80.00;;;;;;5073844;28;20544;-87
2021/10/10 01:34:12;;;;;;;11.23;8.77;;;5.60;80.00;;;;;;5072382;28;20179;-86
2021/10/10 01:36:38;;;;;;;12.43;8.47;;;5.60;79.90;;;;;;5072166;28;20171;-86
2021/10/10 01:39:05;;;;;;;13.27;8.63;;;5.60;79.90;;;;;;5072292;28;20191;-87
2021/10/10 01:41:30;;;;;;;11.43;8.17;;;5.50;79.90;;;;;;5072307;28;20171;-86
2021/10/10 01:43:56;;;;;;;15.13;8.73;;;5.50;80.00;;;;;;5072144;28;20186;-87
2021/10/10 01:46:22;;;;;;;11.23;9.27;;;5.50;79.90;;;;;;5072281;28;20231;-86
2021/10/10 01:48:47;;;;;;;16.00;8.60;;;5.50;79.80;;;;;;5072073;28;20548;-87
2021/10/10 01:51:14;;;;;;;11.73;8.97;;;5.40;79.70;;;;;;5073394;28;20183;-87
2021/10/10 01:53:40;;;;;;;15.50;9.30;;;5.40;79.70;;;;;;5071965;28;20558;-87
2021/10/10 01:56:07;;;;;;;12.03;9.40;;;5.30;79.70;;;;;;5073298;28;20619;-87
2021/10/10 01:58:32;;;;;;;13.57;8.50;;;5.30;79.70;;;;;;5071855;28;20271;-86
2021/10/10 02:00:58;;;;;;;10.27;8.70;;;5.30;79.80;;;;;;5073377;28;20190;-86
2021/10/10 02:03:25;;;;;;;15.27;8.60;;;5.30;79.70;;;;;;5072175;28;20185;-86
2021/10/10 02:05:51;;;;;;;14.60;9.17;;;5.20;80.00;;;;;;5072025;28;20179;-86
2021/10/10 02:08:17;;;;;;;18.63;10.13;;;5.20;81.50;;;;;;5073235;28;20198;-86
2021/10/10 02:10:44;;;;;;;14.10;9.67;;;5.20;82.10;;;;;;5075617;28;20185;-87
2021/10/10 02:13:10;;;;;;;14.40;10.63;;;5.00;83.10;;;;;;5077206;28;20243;-87
2021/10/10 02:15:39;;;;;;;13.50;10.53;;;4.90;83.60;;;;;;5076368;28;20276;-87
2021/10/10 02:18:08;;;;;;;14.67;10.03;;;4.80;83.80;;;;;;5075869;28;20209;-86
2021/10/10 02:20:34;;;;;;;12.80;10.40;;;4.80;84.10;;;;;;5075874;28;20173;-86
2021/10/10 02:23:00;;;;;;;15.80;9.90;;;4.80;84.50;;;;;;5075982;28;20335;-86
2021/10/10 02:25:26;;;;;;;15.27;10.00;;;4.80;84.10;;;;;;5077062;28;20195;-86
2021/10/10 02:27:51;;;;;;;14.63;10.20;;;4.90;84.20;;;;;;5075740;28;20267;-86
2021/10/10 02:30:17;;;;;;;14.03;9.87;;;4.90;84.20;;;;;;5076995;28;20586;-86
2021/10/10 02:32:43;;;;;;;15.10;9.90;;;4.90;84.00;;;;;;5076854;28;20185;-86
2021/10/10 02:35:09;;;;;;;16.27;9.57;;;4.90;84.00;;;;;;5075752;28;20265;-86
2021/10/10 02:37:34;;;;;;;13.70;9.30;;;4.90;84.10;;;;;;5075635;28;20205;-86
2021/10/10 02:40:01;;;;;;;12.37;9.30;;;4.80;83.60;;;;;;5075538;28;20193;-87
2021/10/10 02:42:26;;;;;;;14.40;9.90;;;4.80;83.50;;;;;;5075460;28;20172;-86
2021/10/10 02:44:52;;;;;;;18.80;10.47;;;4.80;83.50;;;;;;5075496;28;20184;-86
2021/10/10 02:47:18;;;;;;;17.73;11.13;;;4.80;84.10;;;;;;5075497;28;20224;-86
2021/10/10 02:49:43;;;;;;;14.80;10.20;;;4.70;84.60;;;;;;5075189;28;20258;-87
2021/10/10 02:52:09;;;;;;;17.83;10.57;;;4.70;84.40;;;;;;5076197;28;20710;-87
2021/10/10 02:54:35;;;;;;;14.40;10.17;;;4.70;84.20;;;;;;5075183;28;20179;-86
2021/10/10 02:57:00;;;;;;;16.20;10.27;;;4.70;83.90;;;;;;5075246;28;20292;-87
2021/10/10 02:59:26;;;;;;;18.57;10.70;;;4.70;84.30;;;;;;5076274;28;20296;-86
2021/10/10 03:01:52;;;;;;;15.73;10.10;;;4.80;84.60;;;;;;5076268;28;20172;-86
2021/10/10 03:04:17;;;;;;;14.33;9.73;;;4.70;84.50;;;;;;5076485;28;20173;-86
2021/10/10 03:06:43;;;;;;;14.13;9.43;;;4.60;84.30;;;;;;5075344;28;20180;-86
2021/10/10 03:09:10;;;;;;;16.27;10.97;;;4.60;84.30;;;;;;5076488;28;20225;-86
2021/10/10 03:11:35;;;;;;;13.03;10.10;;;4.60;84.90;;;;;;5074934;28;20306;-86
2021/10/10 03:14:01;;;;;;;20.57;10.93;;;4.70;85.10;;;;;;5076454;28;20184;-86
2021/10/10 03:16:27;;;;;;;16.90;11.37;;;4.60;85.50;;;;;;5074761;28;20165;-86
2021/10/10 03:18:52;;;;;;;17.80;11.87;;;4.60;85.70;;;;;;5074656;28;20216;-86
2021/10/10 03:21:18;;;;;;;16.50;10.83;;;4.50;86.00;;;;;;5074159;28;20179;-86
2021/10/10 03:23:43;;;;;;;24.57;11.80;;;4.30;86.40;;;;;;5074703;28;20179;-86
2021/10/10 03:26:09;;;;;;;18.23;13.30;;;4.20;87.00;;;;;;5074739;28;20172;-86
2021/10/10 03:28:35;;;;;;;25.27;13.50;;;4.20;87.50;;;;;;5075813;28;20205;-86
2021/10/10 03:31:01;;;;;;;17.97;12.27;;;4.10;87.80;;;;;;5074829;28;20183;-86
2021/10/10 03:33:26;;;;;;;15.50;12.07;;;4.10;87.90;;;;;;5076098;28;20167;-87
2021/10/10 03:35:52;;;;;;;17.13;11.77;;;4.00;88.10;;;;;;5074703;28;20180;-87
2021/10/10 03:38:17;;;;;;;21.83;12.43;;;4.00;88.30;;;;;;5075629;28;20337;-87
2021/10/10 03:40:43;;;;;;;19.60;11.83;;;3.90;88.30;;;;;;5074399;28;20187;-86
2021/10/10 03:43:09;;;;;;;19.47;13.77;;;3.90;88.40;;;;;;5074563;28;20183;-86
2021/10/10 03:45:34;;;;;;;20.37;13.00;;;4.00;88.60;;;;;;5074555;28;20175;-86
2021/10/10 03:48:00;;;;;;;22.90;12.73;;;3.90;88.70;;;;;;5074459;28;20700;-86
2021/10/10 03:50:26;;;;;;;21.50;13.20;;;3.90;88.80;;;;;;5074517;28;20207;-86
2021/10/10 03:52:52;;;;;;;20.90;13.53;;;3.90;88.70;;;;;;5074306;28;20262;-86
2021/10/10 03:55:34;;;;;;;20.07;14.03;;;3.90;88.80;;;;;;5074104;28;20180;-86
2021/10/10 03:58:01;;;;;;;18.00;13.43;;;3.80;89.00;;;;;;5073950;28;20198;-86
2021/10/10 04:00:28;;;;;;;18.13;13.60;;;3.90;89.20;;;;;;5075321;28;20210;-86
2021/10/10 04:02:54;;;;;;;18.67;13.30;;;3.90;89.20;;;;;;5074361;28;20578;-86
2021/10/10 04:07:58;;;;;;;18.77;13.00;;;3.90;89.10;;;;;;5075483;28;20170;-87
2021/10/10 04:10:25;;;;;;;17.87;13.07;;;3.90;89.00;;;;;;5075143;28;20179;-86
2021/10/10 04:12:51;;;;;;;24.53;13.63;;;3.90;89.10;;;;;;5073888;28;20182;-86
2021/10/10 04:15:17;;;;;;;20.23;14.17;;;3.90;89.20;;;;;;5073886;28;20648;-86
2021/10/10 04:17:44;;;;;;;16.10;13.33;;;3.80;89.30;;;;;;5075032;28;20218;-86
2021/10/10 04:20:12;;;;;;;24.63;14.77;;;3.90;89.50;;;;;;5073828;28;20180;-86
2021/10/10 04:22:38;;;;;;;20.70;14.57;;;3.90;89.60;;;;;;5073545;28;20182;-86
2021/10/10 04:25:04;;;;;;;19.80;13.23;;;4.00;89.70;;;;;;5073868;28;20266;-86
2021/10/10 04:27:32;;;;;;;18.23;13.03;;;4.00;89.70;;;;;;5073643;28;20179;-86
2021/10/10 04:29:58;;;;;;;20.57;14.80;;;4.10;89.70;;;;;;5073425;28;20199;-86
2021/10/10 04:32:23;;;;;;;18.80;13.10;;;4.10;89.80;;;;;;5072609;28;20285;-86
2021/10/10 04:34:49;;;;;;;17.97;13.17;;;4.10;89.90;;;;;;5073441;28;20211;-86
2021/10/10 04:37:15;;;;;;;22.63;14.93;;;4.20;89.90;;;;;;5073156;28;20647;-86
2021/10/10 04:39:40;;;;;;;18.60;14.70;;;4.30;89.90;;;;;;5073031;28;20205;-86
2021/10/10 04:42:06;;;;;;;19.50;13.67;;;4.30;89.90;;;;;;5073134;28;20183;-86
2021/10/10 04:44:32;;;;;;;20.60;14.40;;;4.30;89.80;;;;;;5074662;28;20589;-86
2021/10/10 04:46:58;;;;;;;19.27;14.13;;;4.20;89.80;;;;;;5074405;28;20177;-86
2021/10/10 04:49:23;;;;;;;22.43;15.17;;;4.20;89.80;;;;;;5073063;28;20196;-86
2021/10/10 04:51:49;;;;;;;23.43;15.33;;;4.30;89.80;;;;;;5072846;28;20175;-86
2021/10/10 04:54:21;;;;;;;25.10;15.80;;;4.20;89.70;;;;;;5091750;28;20536;-86
2021/10/10 04:56:47;;;;;;;25.63;14.47;;;4.20;89.70;;;;;;5089880;28;20175;-86
2021/10/10 04:59:13;;;;;;;22.63;13.60;;;4.20;89.70;;;;;;5089495;28;20190;-86
2021/10/10 05:01:38;;;;;;;28.97;13.70;;;4.20;89.70;;;;;;5089691;28;20535;-87
2021/10/10 05:04:04;;;;;;;18.83;14.00;;;4.20;89.70;;;;;;5090863;28;20213;-86
2021/10/10 05:06:29;;;;;;;22.17;14.80;;;4.20;89.70;;;;;;5089535;28;20182;-87
2021/10/10 05:08:55;;;;;;;17.43;13.60;;;4.20;89.70;;;;;;5089499;28;20612;-86
2021/10/10 05:11:21;;;;;;;20.53;14.47;;;4.30;89.60;;;;;;5089487;28;20182;-86
2021/10/10 05:13:46;;;;;;;23.90;14.23;;;4.20;89.60;;;;;;5090473;28;20202;-86
2021/10/10 05:16:12;;;;;;;22.83;13.83;;;4.20;89.70;;;;;;5090677;28;20526;-87
2021/10/10 05:18:38;;;;;;;21.07;15.37;;;4.30;89.70;;;;;;5089259;28;20230;-87
2021/10/10 05:21:03;;;;;;;20.50;14.03;;;4.40;89.70;;;;;;5090718;28;20329;-87
2021/10/10 05:23:29;;;;;;;19.33;15.37;;;4.40;89.70;;;;;;5090436;28;20194;-86
2021/10/10 05:25:55;;;;;;;18.90;14.23;;;4.50;89.50;;;;;;5089333;28;20178;-86
2021/10/10 05:28:20;;;;;;;22.83;15.53;;;4.50;89.40;;;;;;5089038;28;20300;-86
2021/10/10 05:30:47;;;;;;;18.57;14.23;;;4.50;89.30;;;;;;5089725;28;20568;-86
2021/10/10 05:33:13;;;;;;;19.53;13.33;;;4.50;89.30;;;;;;5088970;28;20205;-86
2021/10/10 05:35:38;;;;;;;32.13;14.97;;;4.50;89.30;;;;;;5090147;28;20175;-86
2021/10/10 05:38:04;;;;;;;23.43;14.40;;;4.40;89.20;;;;;;5090140;28;20217;-86
2021/10/10 05:40:30;;;;;;;18.77;13.40;;;4.40;89.30;;;;;;5089905;28;20186;-86
2021/10/10 05:42:55;;;;;;;21.27;13.43;;;4.50;89.30;;;;;;5088922;28;20265;-86
2021/10/10 05:45:21;;;;;;;16.40;13.03;;;4.50;89.30;;;;;;5088724;28;20613;-86
2021/10/10 05:47:47;;;;;;;17.03;13.23;;;4.60;89.20;;;;;;5088578;28;20181;-86
2021/10/10 05:50:12;;;;;;;20.83;13.40;;;4.60;89.20;;;;;;5090098;28;20233;-86
2021/10/10 05:52:38;;;;;;;19.00;12.40;;;4.60;89.10;;;;;;5090061;28;20226;-86
2021/10/10 05:55:07;;;;;;;17.80;12.17;;;4.60;89.00;;;;;;5088586;28;20274;-87
2021/10/10 05:57:52;;;;;;;16.60;11.10;;;4.70;89.00;;;;;;5088720;28;20210;-87
2021/10/10 06:00:20;;;;;;;16.77;12.83;;;4.70;88.80;;;;;;5088617;28;20161;-86
2021/10/10 06:02:46;;;;;;;15.63;12.40;;;4.70;88.60;;;;;;5089131;28;20177;-86
2021/10/10 06:05:13;;;;;;;20.33;12.53;;;4.70;88.40;;;;;;5078960;28;20210;-86
2021/10/10 06:07:39;;;;;;;16.57;12.93;;;4.80;88.20;;;;;;5077563;28;20226;-86
2021/10/10 06:10:07;;;;;;;18.63;13.33;;;4.80;88.20;;;;;;5076031;28;20257;-86
2021/10/10 06:12:34;;;;;;;22.13;13.50;;;4.80;88.30;;;;;;5076849;28;20188;-86
2021/10/10 06:15:01;;;;;;;18.73;12.77;;;4.80;88.60;;;;;;5076635;28;20640;-87
2021/10/10 06:17:28;;;;;;;18.73;13.17;;;4.80;88.80;;;;;;5075059;28;20175;-86
2021/10/10 06:19:54;;;;;;;20.97;13.90;;;4.80;88.70;;;;;;5074967;28;20379;-86
2021/10/10 06:22:19;;;;;;;24.30;14.57;;;4.80;88.80;;;;;;5075080;28;20180;-86
2021/10/10 06:24:45;;;;;;;25.10;14.70;;;4.90;89.10;;;;;;5075025;28;20179;-86
2021/10/10 06:27:11;;;;;;;19.87;14.90;;;5.00;89.30;;;;;;5075059;28;20180;-86
2021/10/10 06:29:36;;;;;;;21.50;14.80;;;5.00;89.50;;;;;;5076068;28;20197;-86
2021/10/10 06:32:02;;;;;;;20.10;14.37;;;5.20;89.60;;;;;;5075750;28;20176;-86
2021/10/10 06:34:28;;;;;;;20.47;14.57;;;5.30;89.50;;;;;;5074820;28;20608;-86
2021/10/10 06:36:54;;;;;;;23.17;16.47;;;5.40;89.40;;;;;;5075122;28;20164;-86
2021/10/10 06:39:20;;;;;;;23.47;15.97;;;5.50;89.20;;;;;;5074300;28;20228;-86
2021/10/10 06:41:47;;;;;;;28.27;15.23;;;5.70;89.00;;;;;;5074732;28;20183;-86
2021/10/10 06:44:13;;;;;;;23.43;13.80;;;5.70;88.70;;;;;;5074730;28;20197;-86
2021/10/10 06:46:39;;;;;;;20.43;14.87;;;5.80;88.50;;;;;;5074927;28;20178;-86
2021/10/10 06:49:04;;;;;;;25.03;14.93;;;5.90;88.30;;;;;;5075994;28;20205;-86
2021/10/10 06:51:30;;;;;;;30.23;15.37;;;5.90;88.20;;;;;;5076016;28;20278;-86
2021/10/10 06:53:56;;;;;;;18.63;13.70;;;6.00;88.10;;;;;;5074157;28;20312;-86
2021/10/10 06:56:21;;;;;;;19.83;14.93;;;6.00;88.20;;;;;;5074362;28;20174;-86
2021/10/10 06:58:47;;;;;;;23.70;15.13;;;6.20;88.00;;;;;;5075692;28;20198;-86
2021/10/10 07:01:14;;;;;;;20.00;14.63;;;6.20;87.60;;;;;;5074205;28;20179;-87
2021/10/10 07:03:40;;;;;;;17.97;14.23;;;6.30;87.60;;;;;;5073813;28;20727;-86
2021/10/10 07:06:05;;;;;;;21.87;14.43;;;6.30;87.20;;;;;;5074211;28;20178;-86
2021/10/10 07:08:31;;;;;;;24.80;15.17;;;6.30;87.10;;;;;;5074207;28;20203;-87
2021/10/10 07:10:56;;;;;;;18.27;13.47;;;6.40;87.20;;;;;;5074012;28;20281;-86
2021/10/10 07:13:22;;;;;;;21.90;14.10;;;6.40;87.20;;;;;;5074028;28;20296;-86
2021/10/10 07:15:49;;;;;;;18.13;13.13;;;6.50;87.10;;;;;;5073491;28;20231;-86
2021/10/10 07:18:20;;;;;;;21.83;15.07;;;6.50;86.90;;;;;;5075335;28;20198;-86
2021/10/10 07:26:01;;;;;;;24.40;14.27;;;6.80;86.30;;;;;;5075611;28;20258;-86
2021/10/10 07:28:27;;;;;;;18.03;13.53;;;6.80;86.50;;;;;;5075404;28;20226;-85
2021/10/10 07:30:54;;;;;;;21.13;12.90;;;7.00;86.30;;;;;;5073300;28;20210;-86
2021/10/10 07:33:20;;;;;;;19.20;13.90;;;7.10;86.20;;;;;;5075041;28;20248;-86
2021/10/10 07:35:46;;;;;;;19.23;13.73;;;7.20;85.80;;;;;;5074773;28;20242;-86
2021/10/10 07:38:11;;;;;;;27.00;13.80;;;7.30;85.50;;;;;;5074952;28;20273;-86
2021/10/10 07:40:37;;;;;;;27.60;14.30;;;7.40;85.10;;;;;;5074459;28;20658;-87
2021/10/10 07:43:03;;;;;;;22.00;14.10;;;7.50;84.80;;;;;;5074722;28;20174;-86
2021/10/10 07:45:31;;;;;;;23.90;14.07;;;7.50;84.50;;;;;;5073259;28;20175;-87
2021/10/10 07:48:02;;;;;;;20.97;14.13;;;7.70;84.70;;;;;;5074492;28;20536;-86
2021/10/10 07:50:28;;;;;;;16.43;13.67;;;7.80;84.00;;;;;;5073430;28;20537;-87
2021/10/10 07:52:54;;;;;;;23.37;14.40;;;8.00;83.80;;;;;;5072823;28;20211;-86
2021/10/10 07:55:19;;;;;;;24.30;14.10;;;8.00;82.90;;;;;;5073447;28;20619;-87
2021/10/10 07:57:45;;;;;;;19.23;13.43;;;8.00;82.50;;;;;;5074486;28;20250;-86
2021/10/10 08:00:11;;;;;;;22.13;15.30;;;8.00;82.60;;;;;;5073086;28;20223;-87
2021/10/10 08:02:57;;;;;;;18.47;14.53;;;8.00;82.50;;;;;;5074072;28;20638;-87
2021/10/10 08:05:25;;;;;;;20.87;14.33;;;8.20;82.40;;;;;;5074099;28;20175;-86
2021/10/10 08:07:51;;;;;;;21.10;14.70;;;8.30;81.60;;;;;;5073008;28;20199;-87
2021/10/10 08:10:17;;;;;;;19.40;14.60;;;8.40;82.50;;;;;;5074094;28;20183;-86
2021/10/10 08:12:43;;;;;;;22.07;13.47;;;8.50;81.40;;;;;;5072514;28;20334;-86
2021/10/10 08:15:09;;;;;;;20.03;13.33;;;8.60;80.50;;;;;;5072797;28;20206;-86
2021/10/10 08:17:36;;;;;;;19.60;14.17;;;8.60;79.90;;;;;;5072793;28;20172;-86
2021/10/10 08:20:03;;;;;;;19.33;14.00;;;8.70;80.30;;;;;;5072553;28;20214;-86
2021/10/10 08:22:29;;;;;;;18.03;14.03;;;8.80;81.40;;;;;;5072510;28;20553;-86
2021/10/10 08:24:54;;;;;;;16.27;12.77;;;9.00;79.50;;;;;;5073746;28;20190;-87
2021/10/10 08:27:22;;;;;;;19.87;12.23;;;9.20;78.20;;;;;;5072078;28;20179;-87
2021/10/10 08:29:47;;;;;;;15.90;12.10;;;9.30;78.20;;;;;;5072456;28;20581;-87
2021/10/10 08:32:13;;;;;;;17.60;12.33;;;9.30;76.10;;;;;;5072031;28;20182;-86
2021/10/10 08:34:38;;;;;;;18.57;13.30;;;9.30;75.60;;;;;;5073381;28;20174;-87
2021/10/10 08:37:04;;;;;;;18.23;12.50;;;9.40;76.30;;;;;;5072121;28;20194;-87
2021/10/10 08:39:30;;;;;;;18.30;12.67;;;9.50;75.90;;;;;;5072005;28;20737;-87
2021/10/10 08:42:00;;;;;;;14.73;11.90;;;9.60;74.80;;;;;;5072061;28;20181;-87
2021/10/10 08:44:35;;;;;;;15.50;12.10;;;9.80;74.90;;;;;;5073324;28;20194;-87
2021/10/10 08:47:05;;;;;;;21.77;11.77;;;9.80;74.30;;;;;;5072656;28;20163;-87
2021/10/10 08:49:30;;;;;;;17.73;12.10;;;9.90;73.20;;;;;;5073511;28;20369;-87
2021/10/10 08:51:56;;;;;;;18.37;12.97;;;9.80;73.60;;;;;;5073331;28;20253;-87
2021/10/10 08:54:22;;;;;;;18.37;12.13;;;9.90;74.30;;;;;;5072016;28;20290;-86
2021/10/10 08:56:50;;;;;;;21.37;12.47;;;9.90;74.30;;;;;;5073621;28;20216;-86
2021/10/10 08:59:19;;;;;;;20.27;12.90;;;10.00;75.00;;;;;;5071701;28;20668;-86
2021/10/10 09:01:45;;;;;;;22.93;12.47;;;10.00;73.70;;;;;;5072005;28;20178;-86
2021/10/10 09:04:11;;;;;;;19.80;12.60;;;9.90;72.80;;;;;;5071773;28;20179;-86
2021/10/10 09:06:40;;;;;;;19.87;12.57;;;9.80;71.80;;;;;;5072574;28;20175;-86
2021/10/10 09:09:32;;;;;;;17.07;12.77;;;9.80;73.60;;;;;;5072455;28;20209;-86
2021/10/10 09:12:06;;;;;;;16.83;12.10;;;9.80;74.90;;;;;;5072122;28;20228;-87
2021/10/10 09:14:48;;;;;;;19.10;12.60;;;9.90;73.30;;;;;;5073080;28;20163;-88
2021/10/10 09:17:15;;;;;;;14.03;11.60;;;9.90;73.90;;;;;;5071750;28;20558;-87
2021/10/10 09:19:50;;;;;;;17.07;12.07;;;10.00;72.70;;;;;;5071783;28;20195;-86
2021/10/10 09:22:16;;;;;;;21.17;12.73;;;10.00;72.50;;;;;;5073099;28;20162;-87
2021/10/10 09:24:42;;;;;;;18.23;11.23;;;10.00;72.90;;;;;;5072053;28;20172;-87
2021/10/10 09:27:13;;;;;;;17.03;12.10;;;10.00;70.70;;;;;;5072730;28;20704;-87
2021/10/10 09:29:45;;;;;;;14.83;10.73;;;10.00;70.80;;;;;;5072833;28;20570;-87
2021/10/10 09:32:19;;;;;;;20.87;12.33;;;10.10;71.30;;;;;;5072702;28;20236;-87
2021/10/10 09:34:49;;;;;;;19.00;12.10;;;10.10;71.30;;;;;;5072868;28;20196;-87
2021/10/10 09:37:29;;;;;;;20.10;11.57;;;10.10;72.30;;;;;;5072361;28;20180;-87
2021/10/10 09:42:44;;;;;;;18.10;12.07;;;10.20;70.70;;;;;;5076762;28;20240;-87
2021/10/10 09:45:20;;;;;;;19.50;11.20;;;10.40;71.30;;;;;;5075189;28;20302;-87
2021/10/10 09:47:59;;;;;;;23.97;11.97;;;10.60;70.40;;;;;;5076244;28;20162;-87
2021/10/10 09:50:29;;;;;;;15.37;11.97;;;10.70;68.90;;;;;;5075069;28;20171;-87
2021/10/10 09:53:10;;;;;;;16.33;11.00;;;10.80;68.40;;;;;;5075666;28;20674;-87
2021/10/10 09:55:59;;;;;;;26.43;10.83;;;10.80;69.20;;;;;;5074968;28;20228;-87
2021/10/10 09:58:42;;;;;;;18.23;12.03;;;10.90;69.10;;;;;;5076256;28;20188;-87
2021/10/10 10:01:15;;;;;;;18.47;11.93;;;11.00;68.90;;;;;;5074902;28;20167;-87
2021/10/10 10:04:03;;;;;;;17.60;11.10;;;11.10;68.70;;;;;;5076057;28;20179;-87
2021/10/10 10:06:33;;;;;;;17.60;10.50;;;11.30;67.90;;;;;;5074701;28;20198;-87
2021/10/10 10:09:04;;;;;;;16.23;11.03;;;11.50;68.60;;;;;;5075287;28;20195;-87
2021/10/10 10:11:35;;;;;;;18.80;10.83;;;11.60;67.20;;;;;;5074607;28;20586;-87
2021/10/10 10:14:05;;;;;;;18.87;10.60;;;11.50;65.90;;;;;;5074594;28;20226;-87
2021/10/10 10:16:33;;;;;;;13.33;10.33;;;11.60;64.70;;;;;;5074695;28;20221;-87
2021/10/10 10:18:59;;;;;;;16.50;11.47;;;11.40;64.40;;;;;;5076038;28;20184;-87
2021/10/10 10:21:30;;;;;;;18.33;10.40;;;11.50;65.80;;;;;;5074443;28;20260;-87
2021/10/10 10:23:59;;;;;;;18.23;11.43;;;11.70;65.30;;;;;;5074764;28;20183;-86
2021/10/10 10:26:35;;;;;;;17.97;10.97;;;11.80;65.30;;;;;;5074347;28;20194;-87
2021/10/10 10:29:07;;;;;;;16.03;11.20;;;11.80;66.10;;;;;;5074429;28;20240;-87
2021/10/10 10:31:35;;;;;;;14.80;11.00;;;11.80;65.80;;;;;;5075620;28;20160;-87
2021/10/10 10:34:21;;;;;;;14.07;10.57;;;11.80;66.00;;;;;;5074152;28;20223;-87
2021/10/10 10:37:00;;;;;;;21.90;11.27;;;11.90;67.20;;;;;;5074324;28;20205;-87
2021/10/10 10:39:49;;;;;;;17.17;12.50;;;11.90;66.50;;;;;;5074129;28;20222;-87
2021/10/10 10:42:37;;;;;;;15.53;11.73;;;11.90;66.30;;;;;;5074211;28;20169;-87
2021/10/10 10:45:27;;;;;;;15.77;11.73;;;11.80;65.40;;;;;;5075759;28;20310;-87
2021/10/10 10:47:56;;;;;;;14.30;11.47;;;12.00;66.30;;;;;;5074235;28;20512;-88
2021/10/10 10:50:24;;;;;;;16.63;10.80;;;11.70;68.10;;;;;;5075323;28;20160;-88
2021/10/10 10:53:03;;;;;;;21.47;11.57;;;11.90;67.30;;;;;;5073862;28;20207;-88
2021/10/10 10:55:43;;;;;;;14.73;12.00;;;11.80;67.30;;;;;;5075305;28;20221;-88
2021/10/10 10:58:13;;;;;;;18.30;11.33;;;11.90;67.80;;;;;;5075360;28;20198;-88
2021/10/10 11:00:50;;;;;;;16.53;11.13;;;11.80;66.70;;;;;;5074104;28;20171;-88
2021/10/10 11:03:25;;;;;;;18.30;11.40;;;11.80;67.30;;;;;;5075623;28;20615;-88
2021/10/10 11:05:52;;;;;;;20.03;12.07;;;11.90;68.50;;;;;;5074076;28;20167;-88
2021/10/10 11:08:30;;;;;;;21.63;11.67;;;12.00;67.90;;;;;;5074894;28;20698;-88
2021/10/10 11:11:05;;;;;;;16.13;10.90;;;12.00;68.20;;;;;;5074772;28;20659;-88
2021/10/10 11:13:34;;;;;;;13.23;10.30;;;12.00;66.60;;;;;;5074973;28;20187;-88
2021/10/10 11:16:25;;;;;;;12.90;10.07;;;12.00;67.90;;;;;;5073856;28;20171;-88
2021/10/10 11:18:53;;;;;;;18.23;12.07;;;12.00;67.40;;;;;;5074666;28;20598;-88
2021/10/10 11:21:22;;;;;;;19.40;11.63;;;11.90;66.70;;;;;;5074711;28;20183;-88
2021/10/10 11:23:51;;;;;;;14.90;10.23;;;12.00;67.00;;;;;;5074507;28;20179;-88
2021/10/10 11:26:17;;;;;;;15.83;10.53;;;11.90;67.70;;;;;;5073388;28;20175;-88
2021/10/10 11:28:47;;;;;;;16.90;11.47;;;11.90;67.70;;;;;;5073189;28;20191;-88
2021/10/10 11:31:27;;;;;;;15.07;10.47;;;12.00;68.30;;;;;;5073186;28;20175;-88
2021/10/10 11:33:56;;;;;;;17.70;10.97;;;12.20;67.30;;;;;;5073497;28;20202;-88
2021/10/10 11:36:38;;;;;;;12.43;10.03;;;12.30;66.70;;;;;;5073279;28;20172;-88
2021/10/10 11:39:10;;;;;;;20.33;10.57;;;12.20;65.40;;;;;;5073114;28;20489;-88
2021/10/10 11:41:42;;;;;;;14.20;9.80;;;12.40;66.10;;;;;;5073113;28;20214;-88
2021/10/10 11:44:12;;;;;;;13.33;11.00;;;12.70;66.20;;;;;;5074408;28;20152;-88
2021/10/10 11:46:50;;;;;;;18.43;11.23;;;12.80;66.40;;;;;;5073068;28;20266;-88
2021/10/10 11:49:38;;;;;;;13.87;11.00;;;12.90;65.50;;;;;;5073021;28;20290;-88
2021/10/10 11:52:46;;;;;;;16.07;11.70;;;13.10;65.90;;;;;;5074580;28;20588;-88
2021/10/10 11:57:47;;;;;;;17.00;10.53;;;13.10;64.90;;;;;;5074443;28;20240;-88
2021/10/10 12:00:15;;;;;;;17.47;10.83;;;13.30;64.70;;;;;;5073551;28;20512;-88
2021/10/10 12:02:43;;;;;;;14.10;10.17;;;13.50;64.70;;;;;;5072386;28;20552;-88
2021/10/10 12:05:14;;;;;;;20.03;10.83;;;13.70;65.30;;;;;;5073901;28;20163;-89
2021/10/10 12:07:44;;;;;;;15.00;10.70;;;13.80;62.30;;;;;;5072655;28;20199;-88
2021/10/10 12:10:12;;;;;;;15.07;10.67;;;13.70;62.00;;;;;;5073857;28;20171;-88
2021/10/10 12:12:38;;;;;;;15.93;10.57;;;13.90;63.10;;;;;;5073904;28;20191;-88
2021/10/10 12:15:05;;;;;;;26.90;10.80;;;13.70;62.50;;;;;;5072610;28;20179;-88
2021/10/10 12:17:43;;;;;;;16.60;10.70;;;14.00;63.80;;;;;;5073023;28;20171;-88
2021/10/10 12:20:18;;;;;;;15.13;10.73;;;14.00;63.00;;;;;;5073618;28;20187;-88
2021/10/10 12:23:05;;;;;;;15.47;9.87;;;14.30;63.10;;;;;;5072682;28;20201;-88
2021/10/10 12:25:33;;;;;;;14.47;9.57;;;14.20;60.90;;;;;;5073445;28;20240;-88
2021/10/10 12:28:10;;;;;;;13.47;9.83;;;14.40;61.20;;;;;;5073101;28;20176;-89
2021/10/10 12:30:42;;;;;;;11.73;9.47;;;14.50;62.00;;;;;;5072612;28;20227;-88
2021/10/10 12:33:26;;;;;;;14.93;8.77;;;14.60;61.30;;;;;;5072402;28;20672;-88
2021/10/10 12:35:53;;;;;;;14.60;9.27;;;14.30;59.70;;;;;;5072382;28;20267;-88
2021/10/10 12:38:30;;;;;;;13.47;9.50;;;14.30;59.00;;;;;;5072294;28;20541;-88
2021/10/10 12:40:55;;;;;;;13.20;9.37;;;14.40;59.80;;;;;;5073702;28;20190;-88
2021/10/10 12:43:40;;;;;;;12.03;9.47;;;14.30;59.80;;;;;;5072443;28;20202;-88
2021/10/10 12:46:06;;;;;;;17.80;9.53;;;14.60;60.60;;;;;;5072501;28;20693;-88
2021/10/10 12:48:32;;;;;;;12.87;9.07;;;14.50;57.80;;;;;;5073408;28;20222;-88
2021/10/10 12:51:00;;;;;;;15.17;10.10;;;14.70;59.20;;;;;;5073498;28;20171;-88
2021/10/10 12:53:35;;;;;;;12.80;9.07;;;14.90;58.60;;;;;;5072381;28;20706;-88
2021/10/10 12:56:18;;;;;;;11.63;8.93;;;14.60;57.00;;;;;;5072091;28;20178;-88